Time;durP1;ratioP1;P1;durP2;ratioP2;P2;SDS_P1;SDS_P2;PMS_P1;PMS_P2;Temp;Humidity;BMP_temperature;BMP_pressure;BME280_temperature;BME280_humidity;BME280_pressure;Samples;Min_cycle;Max_cycle;Signal;HPM_P1;HPM_P2
2022/01/12 00:01:23;;;;;;;96.10;41.00;;;;;;;-3.11;67.87;100732.34;106075;1274;95213;-70
2022/01/12 00:03:51;;;;;;;95.90;41.60;;;;;;;-3.15;67.96;100734.91;106051;1274;112119;-70
2022/01/12 00:06:20;;;;;;;89.90;39.50;;;;;;;-3.18;67.83;100732.61;106220;1274;95191;-73
2022/01/12 00:08:49;;;;;;;92.60;40.00;;;;;;;-3.20;67.74;100734.84;106166;1274;107829;-72
2022/01/12 00:11:20;;;;;;;86.20;39.20;;;;;;;-3.21;67.99;100736.23;106086;1274;98053;-73
2022/01/12 00:13:53;;;;;;;94.20;42.00;;;;;;;-3.21;67.65;100739.16;106076;1273;95210;-72
2022/01/12 00:16:20;;;;;;;90.80;39.00;;;;;;;-3.22;68.00;100739.51;106031;1274;111404;-71
2022/01/12 00:18:49;;;;;;;84.70;39.40;;;;;;;-3.21;67.97;100739.86;106007;1273;97851;-70
2022/01/12 00:21:17;;;;;;;92.70;39.50;;;;;;;-3.21;67.76;100740.39;106036;1274;107713;-73
2022/01/12 00:23:45;;;;;;;89.00;38.80;;;;;;;-3.23;67.88;100744.02;106138;1274;97970;-71
2022/01/12 00:26:37;;;;;;;93.90;40.40;;;;;;;-3.23;68.16;100745.73;106062;1274;96190;-72
2022/01/12 00:34:37;;;;;;;93.60;38.80;;;;;;;-3.20;68.21;100749.42;106147;1274;109628;-72
2022/01/12 00:37:05;;;;;;;92.80;37.40;;;;;;;-3.18;67.99;100748.77;106150;1274;97959;-74
2022/01/12 00:39:33;;;;;;;88.60;39.70;;;;;;;-3.16;68.09;100747.73;106165;1273;97855;-73
2022/01/12 00:42:01;;;;;;;88.60;40.30;;;;;;;-3.15;68.11;100750.70;106203;1274;111258;-72
2022/01/12 00:44:35;;;;;;;90.40;39.20;;;;;;;-3.10;68.12;100753.52;106158;1274;97895;-72
2022/01/12 00:47:03;;;;;;;93.30;37.30;;;;;;;-3.07;68.22;100753.38;106111;1273;107728;-70
2022/01/12 00:49:31;;;;;;;92.10;38.90;;;;;;;-3.07;68.02;100757.20;106063;1274;98464;-73
2022/01/12 00:51:59;;;;;;;89.10;42.50;;;;;;;-3.10;68.11;100757.34;106142;1274;97901;-72
2022/01/12 00:54:26;;;;;;;90.00;39.50;;;;;;;-3.09;67.99;100763.08;106147;1274;111416;-72
2022/01/12 00:56:54;;;;;;;85.10;37.60;;;;;;;-3.08;68.19;100762.05;106067;1274;96576;-71
2022/01/12 00:59:22;;;;;;;85.30;38.90;;;;;;;-3.07;68.02;100763.27;107452;1273;107763;-71
2022/01/12 01:01:56;;;;;;;85.30;39.10;;;;;;;-3.07;68.05;100765.02;106146;1274;97691;-72
2022/01/12 01:04:25;;;;;;;88.00;39.10;;;;;;;-3.05;67.96;100764.85;106179;1274;97044;-71
2022/01/12 01:06:55;;;;;;;93.20;39.10;;;;;;;-3.03;68.09;100763.30;106149;1274;112399;-72
2022/01/12 01:09:23;;;;;;;84.10;39.00;;;;;;;-3.01;68.18;100761.77;106240;1274;96399;-71
2022/01/12 01:11:53;;;;;;;85.10;37.30;;;;;;;-3.01;68.00;100762.11;106098;1274;107760;-72
2022/01/12 01:14:43;;;;;;;83.20;36.40;;;;;;;-3.01;68.24;100764.71;106148;1274;97960;-72
2022/01/12 01:25:40;;;;;;;80.80;36.40;;;;;;;-2.98;68.24;100759.02;106142;1274;107658;-72
2022/01/12 01:28:12;;;;;;;86.30;37.50;;;;;;;-3.00;68.06;100760.74;106147;1274;98604;-73
2022/01/12 01:30:44;;;;;;;81.70;36.60;;;;;;;-3.00;68.15;100763.52;106146;1274;97909;-73
2022/01/12 01:33:17;;;;;;;82.00;35.90;;;;;;;-2.98;68.25;100762.15;106161;1274;112139;-72
2022/01/12 01:35:54;;;;;;;80.60;38.10;;;;;;;-2.99;68.15;100762.30;106235;1274;95190;-71
2022/01/12 01:38:24;;;;;;;83.60;35.00;;;;;;;-3.01;68.22;100757.09;106201;1274;107683;-71
2022/01/12 01:40:52;;;;;;;80.60;37.30;;;;;;;-2.98;68.08;100755.20;106223;1274;97893;-71
2022/01/12 01:43:42;;;;;;;79.10;36.20;;;;;;;-2.98;68.22;100752.43;106133;1274;97858;-70
2022/01/12 01:54:32;;;;;;;69.70;33.20;;;;;;;-3.02;68.02;100743.02;106196;1274;97995;-72
2022/01/12 01:57:02;;;;;;;81.60;36.80;;;;;;;-3.03;68.03;100744.40;106144;1274;95282;-71
2022/01/12 01:59:29;;;;;;;78.20;35.30;;;;;;;-3.03;68.20;100745.95;106157;1274;111429;-74
2022/01/12 02:01:57;;;;;;;75.10;34.00;;;;;;;-3.03;68.15;100747.85;106128;1274;97876;-72
2022/01/12 02:04:25;;;;;;;79.50;34.90;;;;;;;-3.02;68.28;100750.82;106067;1274;107448;-71
2022/01/12 02:06:54;;;;;;;80.00;34.90;;;;;;;-3.04;68.24;100748.02;106132;1274;97863;-71
2022/01/12 02:09:26;;;;;;;85.30;36.70;;;;;;;-3.04;68.10;100749.41;106088;1274;95960;-72
2022/01/12 02:11:59;;;;;;;73.30;33.90;;;;;;;-3.04;68.13;100750.61;106273;1274;111382;-71
2022/01/12 02:14:50;;;;;;;82.20;36.40;;;;;;;-3.04;68.14;100747.15;106227;1274;97969;-73
2022/01/12 02:17:37;;;;;;;83.50;34.80;;;;;;;-3.02;68.31;100748.91;106210;1274;106704;-73
2022/01/12 02:36:58;;;;;;;74.90;34.00;;;;;;;-2.95;68.51;100755.94;106232;1274;97979;-70
2022/01/12 02:42:31;;;;;;;73.30;33.30;;;;;;;-2.88;68.39;100761.03;105729;1282;97959;-73
2022/01/12 02:50:54;;;;;;;65.10;31.00;;;;;;;-2.86;68.44;100755.50;106134;1274;96981;-70
2022/01/12 02:53:43;;;;;;;68.30;31.00;;;;;;;-2.84;68.28;100753.95;106106;1274;111439;-71
2022/01/12 02:56:21;;;;;;;66.10;30.40;;;;;;;-2.81;68.35;100759.00;106247;1274;97876;-72
2022/01/12 02:58:53;;;;;;;61.70;29.70;;;;;;;-2.80;68.28;100754.50;106165;1274;107766;-71
2022/01/12 03:04:01;;;;;;;66.10;29.30;;;;;;;-2.80;68.40;100751.70;106165;1273;95381;-73
2022/01/12 03:06:36;;;;;;;57.50;26.50;;;;;;;-2.79;68.44;100752.96;106144;1274;111373;-72
2022/01/12 03:09:10;;;;;;;66.10;29.50;;;;;;;-2.77;68.52;100748.98;106217;1274;97973;-72
2022/01/12 03:11:40;;;;;;;64.10;28.90;;;;;;;-2.74;68.61;100754.21;106232;1274;106553;-73
2022/01/12 03:14:09;;;;;;;65.20;30.80;;;;;;;-2.72;68.39;100755.63;106031;1276;97896;-74
2022/01/12 03:16:41;;;;;;;62.60;29.10;;;;;;;-2.70;68.12;100755.64;106137;1274;97905;-71
2022/01/12 03:19:10;;;;;;;58.10;25.40;;;;;;;-2.68;68.35;100754.09;106161;1274;111294;-74
2022/01/12 03:21:38;;;;;;;56.40;25.90;;;;;;;-2.66;68.50;100755.16;106172;1274;95825;-69
2022/01/12 03:24:09;;;;;;;55.50;24.20;;;;;;;-2.66;68.64;100750.98;106094;1274;107816;-71
2022/01/12 03:26:37;;;;;;;53.40;25.40;;;;;;;-2.65;68.66;100757.92;106131;1274;97892;-72
2022/01/12 03:29:05;;;;;;;53.40;24.90;;;;;;;-2.64;68.46;100762.98;106163;1274;97901;-71
2022/01/12 03:31:36;;;;;;;54.40;25.90;;;;;;;-2.63;68.54;100761.95;105990;1274;179990;-72
2022/01/12 03:34:09;;;;;;;48.90;24.00;;;;;;;-2.63;68.59;100762.46;106124;1274;97859;-70
2022/01/12 04:09:03;;;;;;;42.60;19.70;;;;;;;-2.71;68.41;100751.64;106148;1274;98014;-71
2022/01/12 04:11:31;;;;;;;45.50;20.90;;;;;;;-2.73;68.08;100746.23;106088;1274;106782;-71
2022/01/12 04:13:59;;;;;;;43.00;18.90;;;;;;;-2.75;67.90;100748.81;106153;1274;95395;-72
2022/01/12 04:16:26;;;;;;;46.20;20.80;;;;;;;-2.77;67.94;100748.98;106147;1274;97844;-71
2022/01/12 04:18:56;;;;;;;50.60;22.10;;;;;;;-2.77;68.17;100749.14;106234;1273;111496;-71
2022/01/12 04:21:28;;;;;;;49.00;22.30;;;;;;;-2.79;67.99;100744.95;106114;1274;97905;-71
2022/01/12 04:24:00;;;;;;;51.50;22.20;;;;;;;-2.78;68.12;100746.52;106113;1274;107932;-71
2022/01/12 04:26:30;;;;;;;48.70;22.20;;;;;;;-2.77;68.18;100741.67;106153;1274;95281;-71
2022/01/12 04:28:59;;;;;;;50.60;22.40;;;;;;;-2.76;68.06;100742.73;106135;1274;99459;-71
2022/01/12 04:31:27;;;;;;;46.60;21.00;;;;;;;-2.76;68.16;100743.08;106146;1274;111361;-71
2022/01/12 04:33:55;;;;;;;45.50;20.20;;;;;;;-2.76;68.18;100744.46;106115;1274;97950;-71
2022/01/12 04:36:23;;;;;;;45.50;21.30;;;;;;;-2.78;68.25;100743.23;106140;1274;107410;-71
2022/01/12 04:38:51;;;;;;;41.60;19.20;;;;;;;-2.78;67.89;100742.19;106239;1274;97972;-72
2022/01/12 04:41:19;;;;;;;41.00;19.40;;;;;;;-2.79;68.01;100743.58;106234;1274;97982;-72
2022/01/12 04:43:48;;;;;;;45.20;20.20;;;;;;;-2.79;68.07;100742.17;106175;1274;111005;-71
2022/01/12 04:46:24;;;;;;;45.60;20.20;;;;;;;-2.80;68.16;100740.25;106104;1274;97746;-72
2022/01/12 04:49:07;;;;;;;44.30;20.40;;;;;;;-2.79;68.08;100741.66;106374;1274;106718;-71
2022/01/12 04:51:37;;;;;;;42.30;19.30;;;;;;;-2.79;68.11;100740.98;106187;1274;97724;-71
2022/01/12 04:54:05;;;;;;;44.60;21.20;;;;;;;-2.81;68.07;100741.13;106186;1274;95169;-72
2022/01/12 04:56:33;;;;;;;48.30;21.70;;;;;;;-2.80;68.00;100741.84;106120;1274;112123;-71
2022/01/12 04:59:03;;;;;;;49.30;21.00;;;;;;;-2.79;68.21;100737.50;106128;1274;95233;-72
2022/01/12 05:01:36;;;;;;;47.60;21.80;;;;;;;-2.76;68.04;100740.65;106048;1274;105452;-70
2022/01/12 05:07:09;;;;;;;45.80;20.40;;;;;;;-2.73;68.01;100744.85;106169;1274;97973;-72
2022/01/12 05:09:50;;;;;;;45.30;20.60;;;;;;;-2.72;67.86;100743.11;106148;1273;112455;-73
2022/01/12 05:15:14;;;;;;;44.70;21.10;;;;;;;-2.71;68.00;100741.05;106162;1274;107573;-71
2022/01/12 05:17:42;;;;;;;48.80;22.00;;;;;;;-2.70;67.81;100741.74;106182;1274;97927;-71
2022/01/12 05:20:10;;;;;;;49.00;20.50;;;;;;;-2.68;68.09;100743.33;106205;1274;97830;-72
2022/01/12 05:22:37;;;;;;;48.10;21.50;;;;;;;-2.67;67.70;100742.29;106183;1274;111388;-72
2022/01/12 05:25:06;;;;;;;48.90;23.40;;;;;;;-2.68;68.06;100743.33;106234;1274;97845;-73
2022/01/12 05:27:34;;;;;;;47.30;22.20;;;;;;;-2.67;67.86;100744.90;106170;1274;108651;-73
2022/01/12 05:30:03;;;;;;;48.10;21.20;;;;;;;-2.66;68.09;100745.77;106209;1274;97874;-73
2022/01/12 05:32:31;;;;;;;48.00;23.60;;;;;;;-2.67;68.10;100744.04;106254;1274;97871;-70
2022/01/12 05:35:02;;;;;;;55.50;23.60;;;;;;;-2.69;67.87;100746.09;106062;1275;111422;-74
2022/01/12 05:37:32;;;;;;;53.40;24.00;;;;;;;-2.70;67.89;100748.52;106138;1274;95210;-73
2022/01/12 05:40:01;;;;;;;45.80;21.70;;;;;;;-2.70;67.94;100750.08;106101;1274;107693;-71
2022/01/12 05:42:33;;;;;;;47.30;21.00;;;;;;;-2.73;67.49;100753.54;106140;1272;97880;-71
2022/01/12 05:45:03;;;;;;;42.80;21.10;;;;;;;-2.73;67.93;100759.09;106111;1274;97896;-72
2022/01/12 05:50:08;;;;;;;46.60;21.40;;;;;;;-2.72;67.68;100757.71;106175;1274;95273;-71
2022/01/12 05:52:36;;;;;;;48.60;21.10;;;;;;;-2.71;67.95;100758.93;106143;1272;107687;-72
2022/01/12 05:55:06;;;;;;;45.40;22.00;;;;;;;-2.69;67.98;100763.98;106134;1274;95363;-72
2022/01/12 05:57:36;;;;;;;46.90;23.80;;;;;;;-2.69;67.91;100764.69;106141;1274;97863;-72
2022/01/12 06:00:07;;;;;;;48.30;21.60;;;;;;;-2.68;67.87;100766.77;106075;1274;112215;-72
2022/01/12 06:02:35;;;;;;;46.00;20.40;;;;;;;-2.69;67.89;100774.41;106161;1274;99112;-72
2022/01/12 06:05:06;;;;;;;43.70;19.80;;;;;;;-2.71;67.75;100780.14;106225;1274;107769;-72
2022/01/12 06:07:34;;;;;;;40.40;19.90;;;;;;;-2.69;67.81;100781.87;106154;1274;95927;-72
2022/01/12 06:10:05;;;;;;;44.10;19.70;;;;;;;-2.69;67.79;100783.09;106130;1274;98488;-73
2022/01/12 06:12:33;;;;;;;46.40;21.60;;;;;;;-2.68;67.61;100783.09;106189;1274;111417;-72
2022/01/12 06:15:00;;;;;;;53.10;24.70;;;;;;;-2.66;67.65;100783.12;106178;1274;97979;-73
2022/01/12 06:17:28;;;;;;;49.10;23.50;;;;;;;-2.66;67.59;100782.94;106226;1274;107546;-73
2022/01/12 06:19:56;;;;;;;61.70;27.20;;;;;;;-2.66;67.66;100781.73;106120;1274;97953;-73
2022/01/12 06:22:24;;;;;;;55.10;26.40;;;;;;;-2.65;67.63;100782.77;106163;1274;97856;-74
2022/01/12 06:24:56;;;;;;;58.50;26.40;;;;;;;-2.65;67.56;100782.09;106167;1273;111433;-72
2022/01/12 06:27:30;;;;;;;56.10;26.50;;;;;;;-2.66;67.59;100784.16;106108;1273;97870;-75
2022/01/12 06:31:10;;;;;;;57.80;27.50;;;;;;;-2.67;67.53;100784.33;106123;1273;108813;-76
2022/01/12 06:32:58;;;;;;;46.80;22.00;;;;;;;-2.67;67.72;100790.92;106128;1274;96384;-73
2022/01/12 06:35:28;;;;;;;57.00;24.40;;;;;;;-2.68;67.63;100789.86;106118;1274;97959;-75
2022/01/12 06:37:56;;;;;;;53.30;24.50;;;;;;;-2.69;67.68;100795.95;105982;1274;111277;-72
2022/01/12 06:40:26;;;;;;;56.60;24.70;;;;;;;-2.70;67.36;100795.76;106241;1274;95847;-74
2022/01/12 06:42:53;;;;;;;48.80;21.80;;;;;;;-2.71;67.19;100797.31;106219;1274;108014;-75
2022/01/12 06:45:21;;;;;;;44.30;21.00;;;;;;;-2.71;67.65;100800.45;106092;1274;97827;-74
2022/01/12 06:47:49;;;;;;;47.10;22.00;;;;;;;-2.69;67.69;100803.41;106105;1274;97953;-75
2022/01/12 06:50:17;;;;;;;58.90;26.60;;;;;;;-2.67;67.43;100808.46;106127;1272;111478;-75
2022/01/12 06:52:44;;;;;;;60.00;27.50;;;;;;;-2.66;67.75;100816.13;106139;1274;97955;-74
2022/01/12 06:55:12;;;;;;;58.20;26.30;;;;;;;-2.65;67.28;100814.91;106160;1274;107444;-73
2022/01/12 06:57:40;;;;;;;58.70;26.00;;;;;;;-2.64;67.69;100817.85;106210;1274;97768;-70
2022/01/12 07:00:08;;;;;;;54.40;24.10;;;;;;;-2.64;67.28;100815.27;106190;1274;97869;-75
2022/01/12 07:02:37;;;;;;;57.80;25.40;;;;;;;-2.65;67.32;100815.78;106229;1274;111291;-73
2022/01/12 07:05:07;;;;;;;57.70;26.80;;;;;;;-2.66;67.40;100811.23;106206;1274;95302;-75
2022/01/12 07:07:37;;;;;;;57.00;25.40;;;;;;;-2.66;67.38;100820.29;106190;1274;107540;-77
2022/01/12 07:10:06;;;;;;;50.30;23.70;;;;;;;-2.66;67.28;100822.55;106161;1274;97922;-74
2022/01/12 07:12:34;;;;;;;54.40;25.80;;;;;;;-2.65;67.12;100828.63;106194;1274;97889;-77
2022/01/12 07:15:03;;;;;;;50.10;22.80;;;;;;;-2.66;67.37;100834.00;106249;1274;111344;-76
2022/01/12 07:17:31;;;;;;;46.80;21.50;;;;;;;-2.67;67.46;100837.81;106096;1274;97880;-76
2022/01/12 07:20:02;;;;;;;52.20;24.20;;;;;;;-2.66;67.22;100835.91;106143;1274;108067;-77
2022/01/12 07:22:33;;;;;;;57.40;25.90;;;;;;;-2.66;67.52;100838.35;106189;1274;97943;-74
2022/01/12 07:25:00;;;;;;;67.50;30.10;;;;;;;-2.66;67.10;100839.05;106065;1274;97943;-75
2022/01/12 07:27:28;;;;;;;77.00;34.40;;;;;;;-2.68;67.27;100841.63;106142;1273;112556;-74
2022/01/12 07:29:57;;;;;;;68.70;31.80;;;;;;;-2.68;67.23;100840.77;106179;1272;95849;-74
2022/01/12 07:32:29;;;;;;;68.60;32.50;;;;;;;-2.66;67.21;100844.60;106088;1273;105860;-72
2022/01/12 07:34:57;;;;;;;67.50;30.00;;;;;;;-2.66;67.16;100846.34;106086;1274;97902;-72
2022/01/12 07:37:27;;;;;;;61.90;29.10;;;;;;;-2.65;67.29;100846.16;106235;1274;98590;-73
2022/01/12 07:39:57;;;;;;;63.90;28.80;;;;;;;-2.65;67.18;100840.80;106222;1274;111429;-75
2022/01/12 07:42:25;;;;;;;63.10;28.60;;;;;;;-2.65;67.05;100839.05;106136;1274;98008;-75
2022/01/12 07:44:59;;;;;;;59.60;27.20;;;;;;;-2.65;67.18;100838.70;106203;1273;107698;-76
2022/01/12 07:47:30;;;;;;;49.10;22.10;;;;;;;-2.64;67.23;100839.40;106170;1274;95897;-76
2022/01/12 07:50:03;;;;;;;43.40;20.80;;;;;;;-2.64;67.24;100839.75;106303;1274;97902;-77
2022/01/12 07:52:30;;;;;;;51.00;25.00;;;;;;;-2.63;66.97;100838.38;106145;1273;111476;-75
2022/01/12 07:55:01;;;;;;;57.50;26.30;;;;;;;-2.64;66.97;100838.02;106040;1274;97898;-77
2022/01/12 07:57:28;;;;;;;64.40;27.90;;;;;;;-2.62;67.09;100838.55;106108;1274;107746;-71
2022/01/12 07:59:56;;;;;;;56.30;24.90;;;;;;;-2.58;67.12;100838.94;106163;1274;97959;-74
2022/01/12 08:02:26;;;;;;;53.90;26.30;;;;;;;-2.58;67.11;100833.73;106174;1274;97932;-73
2022/01/12 08:04:56;;;;;;;59.90;26.80;;;;;;;-2.57;67.04;100829.05;106127;1274;111390;-76
2022/01/12 08:07:25;;;;;;;49.90;23.80;;;;;;;-2.57;67.01;100835.83;106182;1274;97995;-75
2022/01/12 08:09:54;;;;;;;50.10;23.70;;;;;;;-2.59;66.81;100838.06;106217;1274;107818;-72
2022/01/12 08:12:24;;;;;;;54.40;25.40;;;;;;;-2.63;66.85;100839.07;106109;1274;97960;-73
2022/01/12 08:14:52;;;;;;;54.80;25.50;;;;;;;-2.64;66.90;100842.34;106218;1274;97866;-74
2022/01/12 08:17:20;;;;;;;53.00;25.90;;;;;;;-2.65;66.93;100841.30;106125;1274;111453;-75
2022/01/12 08:19:48;;;;;;;55.10;26.10;;;;;;;-2.68;66.91;100845.97;106141;1272;97957;-71
2022/01/12 08:22:15;;;;;;;55.70;26.60;;;;;;;-2.67;66.71;100846.84;105994;1274;107746;-74
2022/01/12 08:24:43;;;;;;;57.00;27.80;;;;;;;-2.64;66.77;100849.48;106072;1274;97849;-75
2022/01/12 08:27:12;;;;;;;49.80;25.00;;;;;;;-2.61;66.93;100851.94;106141;1274;97876;-74
2022/01/12 08:29:40;;;;;;;51.90;25.80;;;;;;;-2.58;66.66;100853.17;106044;1274;109996;-74
2022/01/12 08:32:10;;;;;;;49.50;24.30;;;;;;;-2.59;66.82;100852.13;106091;1274;97982;-74
2022/01/12 08:34:38;;;;;;;47.90;25.20;;;;;;;-2.64;66.72;100852.61;106094;1274;107432;-76
2022/01/12 08:37:06;;;;;;;51.10;24.50;;;;;;;-2.62;66.48;100858.70;106061;1274;95875;-72
2022/01/12 08:39:34;;;;;;;49.20;23.20;;;;;;;-2.60;66.71;100853.17;106114;1274;98941;-72
2022/01/12 08:42:02;;;;;;;53.40;25.20;;;;;;;-2.57;66.56;100855.80;106016;1274;111259;-74
2022/01/12 08:44:35;;;;;;;42.60;20.00;;;;;;;-2.57;66.52;100858.24;106118;1274;98406;-75
2022/01/12 08:47:05;;;;;;;53.60;27.00;;;;;;;-2.59;66.58;100861.34;106051;1274;108063;-73
2022/01/12 08:49:33;;;;;;;51.60;25.70;;;;;;;-2.62;66.65;100866.52;105968;1274;97869;-72
2022/01/12 08:52:02;;;;;;;51.00;26.10;;;;;;;-2.61;66.71;100867.91;106051;1274;97982;-71
2022/01/12 08:54:31;;;;;;;54.30;25.30;;;;;;;-2.61;66.76;100868.27;106059;1274;111937;-73
2022/01/12 08:56:59;;;;;;;53.50;27.00;;;;;;;-2.63;66.48;100866.50;106086;1274;97764;-73
2022/01/12 08:59:27;;;;;;;50.60;25.20;;;;;;;-2.61;66.45;100868.27;106068;1274;107748;-71
2022/01/12 09:01:55;;;;;;;53.60;27.00;;;;;;;-2.56;66.87;100869.36;106055;1274;97681;-71
2022/01/12 09:04:23;;;;;;;54.00;26.40;;;;;;;-2.51;66.74;100872.71;106091;1274;97875;-72
2022/01/12 09:06:51;;;;;;;51.60;26.80;;;;;;;-2.47;66.48;100869.45;106097;1274;111421;-71
2022/01/12 09:09:24;;;;;;;53.00;26.70;;;;;;;-2.49;66.34;100867.00;106113;1274;97962;-71
2022/01/12 09:11:53;;;;;;;58.80;30.10;;;;;;;-2.51;66.48;100861.59;106154;1274;107920;-74
2022/01/12 09:14:21;;;;;;;52.90;27.10;;;;;;;-2.56;66.39;100860.16;105997;1274;97610;-75
2022/01/12 09:16:55;;;;;;;55.30;29.20;;;;;;;-2.59;66.45;100857.70;106017;1274;95856;-75
2022/01/12 09:19:26;;;;;;;56.90;28.60;;;;;;;-2.58;66.24;100858.40;106059;1274;111347;-73
2022/01/12 09:21:56;;;;;;;51.30;24.70;;;;;;;-2.59;66.53;100861.34;106039;1274;97926;-74
2022/01/12 09:24:24;;;;;;;45.40;21.70;;;;;;;-2.60;66.46;100860.29;105911;1274;107613;-72
2022/01/12 09:26:52;;;;;;;47.60;22.10;;;;;;;-2.63;66.60;100863.89;106066;1274;96206;-73
2022/01/12 09:29:20;;;;;;;47.00;22.30;;;;;;;-2.64;66.40;100861.30;106002;1274;97765;-73
2022/01/12 09:31:48;;;;;;;42.00;21.40;;;;;;;-2.68;66.11;100856.73;105820;1273;111403;-73
2022/01/12 09:34:18;;;;;;;39.30;19.40;;;;;;;-2.75;66.25;100850.23;106101;1274;97915;-74
2022/01/12 09:36:46;;;;;;;42.00;20.20;;;;;;;-2.78;66.22;100851.77;106035;1274;107767;-72
2022/01/12 09:39:14;;;;;;;42.40;19.90;;;;;;;-2.80;66.14;100848.09;106046;1273;97963;-71
2022/01/12 09:41:41;;;;;;;40.90;19.80;;;;;;;-2.87;66.08;100848.70;106050;1274;97880;-72
2022/01/12 09:44:12;;;;;;;38.90;19.80;;;;;;;-2.98;66.10;100848.41;106149;1273;111492;-70
2022/01/12 09:46:41;;;;;;;42.30;18.90;;;;;;;-3.06;65.81;100853.71;106055;1273;97966;-71
2022/01/12 09:49:12;;;;;;;40.30;20.10;;;;;;;-3.11;65.66;100849.14;106020;1273;107763;-74
2022/01/12 09:51:39;;;;;;;38.40;16.90;;;;;;;-3.15;65.86;100848.58;105947;1274;97963;-73
2022/01/12 09:54:09;;;;;;;41.20;17.20;;;;;;;-3.17;65.85;100847.51;105984;1272;95964;-73
2022/01/12 09:56:38;;;;;;;33.60;15.50;;;;;;;-3.18;65.74;100847.14;106067;1274;111274;-73
2022/01/12 09:59:06;;;;;;;33.90;15.50;;;;;;;-3.17;65.94;100847.85;106240;1274;95887;-74
2022/01/12 10:01:36;;;;;;;40.90;17.50;;;;;;;-3.12;65.93;100848.77;106218;1274;107739;-71
2022/01/12 10:04:08;;;;;;;36.60;18.00;;;;;;;-3.08;65.78;100848.30;106119;1274;97885;-73
2022/01/12 10:06:38;;;;;;;34.80;15.00;;;;;;;-3.11;65.72;100843.59;106133;1272;97911;-73
2022/01/12 10:09:07;;;;;;;41.20;17.80;;;;;;;-3.12;65.98;100843.05;106219;1274;110948;-72
2022/01/12 10:11:49;;;;;;;35.00;15.80;;;;;;;-3.09;65.80;100839.79;106222;1274;97857;-73
2022/01/12 10:14:18;;;;;;;35.80;16.80;;;;;;;-3.08;65.78;100836.67;106074;1273;108501;-74
2022/01/12 10:16:53;;;;;;;37.70;16.10;;;;;;;-3.06;65.93;100833.05;105951;1274;97894;-71
2022/01/12 10:19:30;;;;;;;42.70;17.90;;;;;;;-3.03;65.76;100829.09;106053;1273;96997;-74
2022/01/12 10:22:03;;;;;;;35.60;16.70;;;;;;;-3.00;65.78;100828.61;106563;1273;111405;-72
2022/01/12 10:24:36;;;;;;;37.40;17.00;;;;;;;-2.94;65.91;100830.24;106082;1274;97835;-76
2022/01/12 10:27:14;;;;;;;43.30;19.60;;;;;;;-2.91;65.92;100831.66;106114;1272;110324;-75
2022/01/12 10:29:44;;;;;;;40.50;19.10;;;;;;;-2.89;65.92;100827.53;105906;1274;96382;-78
2022/01/12 10:32:18;;;;;;;46.70;20.70;;;;;;;-2.88;65.87;100829.10;106006;1273;96373;-73
2022/01/12 10:34:51;;;;;;;37.80;18.60;;;;;;;-2.85;66.18;100829.81;106028;1274;111540;-77
2022/01/12 10:37:22;;;;;;;43.30;20.80;;;;;;;-2.83;65.75;100825.14;106057;1274;97899;-78
2022/01/12 10:39:53;;;;;;;42.50;19.10;;;;;;;-2.80;66.08;100820.83;106104;1273;107147;-76
2022/01/12 10:42:27;;;;;;;38.60;18.10;;;;;;;-2.79;66.05;100821.72;106106;1274;97783;-74
2022/01/12 10:45:02;;;;;;;;;;;;;;;-2.82;65.99;100817.17;106104;1274;98052;-74
2022/01/12 10:47:34;;;;;;;39.30;18.70;;;;;;;-2.86;65.67;100819.91;106051;1274;111489;-73
2022/01/12 10:50:12;;;;;;;45.60;22.00;;;;;;;-2.87;65.76;100812.27;106057;1274;97937;-73
2022/01/12 10:52:51;;;;;;;44.10;21.60;;;;;;;-2.89;65.90;100804.45;106063;1274;107740;-75
2022/01/12 10:55:19;;;;;;;44.10;20.70;;;;;;;-2.89;65.65;100804.78;106048;1273;97892;-73
2022/01/12 10:57:52;;;;;;;42.70;19.50;;;;;;;-2.88;65.62;100803.40;106013;1274;97995;-74
2022/01/12 11:00:24;;;;;;;44.10;20.00;;;;;;;-2.86;65.67;100798.39;106122;1273;109978;-76
2022/01/12 11:02:56;;;;;;;48.60;20.90;;;;;;;-2.84;65.66;100796.84;105924;1273;97945;-75
2022/01/12 11:05:28;;;;;;;39.50;17.70;;;;;;;-2.87;65.41;100795.59;105844;1274;107743;-74
2022/01/12 11:07:55;;;;;;;41.60;19.90;;;;;;;-2.87;65.97;100793.50;106033;1274;97951;-76
2022/01/12 11:10:27;;;;;;;44.60;21.30;;;;;;;-2.87;65.66;100794.73;106025;1274;97884;-74
2022/01/12 11:12:55;;;;;;;42.40;17.90;;;;;;;-2.86;65.71;100796.98;105956;1274;111393;-74
2022/01/12 11:15:24;;;;;;;40.70;18.90;;;;;;;-2.92;65.72;100799.53;106075;1274;97790;-75
2022/01/12 11:17:52;;;;;;;48.90;21.70;;;;;;;-2.95;65.42;100799.66;105969;1274;107761;-74
2022/01/12 11:20:27;;;;;;;47.60;22.40;;;;;;;-2.96;65.68;100798.27;106114;1273;97824;-76
2022/01/12 11:23:04;;;;;;;46.60;20.00;;;;;;;-2.93;65.60;100801.09;106252;1274;97751;-79
2022/01/12 11:25:34;;;;;;;43.40;21.50;;;;;;;-2.92;65.60;100797.95;106167;1274;112928;-76
2022/01/12 11:28:15;;;;;;;43.40;21.00;;;;;;;-2.95;65.54;100799.84;106114;1274;97728;-76
2022/01/12 11:30:55;;;;;;;40.10;20.20;;;;;;;-2.93;65.66;100797.44;106097;1274;107817;-75
2022/01/12 11:33:45;;;;;;;46.30;21.20;;;;;;;-2.92;65.52;100796.40;106148;1272;97950;-76
2022/01/12 11:36:28;;;;;;;48.10;21.70;;;;;;;-2.95;65.68;100791.51;106243;1274;97880;-77
2022/01/12 11:39:05;;;;;;;44.50;20.30;;;;;;;-2.96;65.36;100791.16;106133;1274;109610;-75
2022/01/12 11:41:38;;;;;;;39.10;18.80;;;;;;;-2.99;65.18;100788.51;106167;1274;98446;-77
2022/01/12 11:44:12;;;;;;;42.70;21.30;;;;;;;-3.01;65.42;100781.55;106082;1273;107741;-74
2022/01/12 11:46:56;;;;;;;44.10;20.50;;;;;;;-2.97;65.55;100781.77;106072;1274;95221;-75
2022/01/12 11:49:33;;;;;;;31.80;14.20;;;;;;;-2.94;65.46;100781.64;106137;1274;98348;-77
2022/01/12 11:52:15;;;;;;;39.30;19.30;;;;;;;-2.92;65.57;100783.03;106090;1274;111461;-75
2022/01/12 11:54:47;;;;;;;43.00;20.50;;;;;;;-2.91;65.38;100778.89;106140;1273;97976;-75
2022/01/12 11:57:20;;;;;;;43.60;21.50;;;;;;;-2.89;65.43;100781.17;106119;1274;107842;-73
2022/01/12 11:59:53;;;;;;;46.70;22.20;;;;;;;-2.87;65.42;100781.88;106092;1274;97857;-75
2022/01/12 12:02:39;;;;;;;47.40;20.90;;;;;;;-2.86;65.26;100782.24;106037;1273;97922;-73
2022/01/12 12:05:10;;;;;;;47.20;20.10;;;;;;;-2.88;65.28;100779.09;106137;1274;111453;-74
2022/01/12 12:07:55;;;;;;;38.70;18.80;;;;;;;-2.94;65.23;100778.33;106136;1274;98177;-73
2022/01/12 12:10:35;;;;;;;38.10;18.20;;;;;;;-2.95;65.42;100778.84;106092;1274;107826;-76
2022/01/12 12:13:06;;;;;;;46.50;22.10;;;;;;;-2.99;65.12;100772.73;106207;1273;97959;-74
2022/01/12 12:15:34;;;;;;;40.20;19.10;;;;;;;-2.98;65.10;100765.79;106157;1274;97963;-78
2022/01/12 12:18:04;;;;;;;43.10;20.90;;;;;;;-2.94;65.50;100770.34;106104;1274;112544;-77
2022/01/12 12:20:34;;;;;;;44.50;19.80;;;;;;;-2.91;65.38;100771.95;106168;1273;97915;-76
2022/01/12 12:23:03;;;;;;;43.80;20.10;;;;;;;-2.89;65.41;100778.20;106261;1274;107775;-76
2022/01/12 12:25:36;;;;;;;53.00;22.60;;;;;;;-2.88;65.33;100785.35;106062;1274;98073;-76
2022/01/12 12:28:08;;;;;;;44.70;20.20;;;;;;;-2.87;65.32;100785.00;105992;1274;97918;-77
2022/01/12 12:30:40;;;;;;;42.10;19.00;;;;;;;-2.86;65.03;100789.36;106168;1273;112119;-76
2022/01/12 12:33:12;;;;;;;49.10;21.70;;;;;;;-2.86;65.18;100791.43;105911;1274;98600;-76
2022/01/12 12:35:43;;;;;;;58.50;27.10;;;;;;;-2.85;65.15;100793.52;107533;1273;107730;-77
2022/01/12 12:38:14;;;;;;;45.80;20.50;;;;;;;-2.82;65.04;100793.90;106129;1274;96270;-77
2022/01/12 12:40:45;;;;;;;45.60;20.50;;;;;;;-2.86;65.01;100795.43;106085;1274;95233;-79
2022/01/12 12:43:28;;;;;;;38.30;18.20;;;;;;;-2.92;64.87;100795.36;106109;1274;111454;-76
2022/01/12 12:46:09;;;;;;;38.80;16.90;;;;;;;-2.97;65.13;100785.59;106041;1274;97833;-77
2022/01/12 12:48:43;;;;;;;41.30;18.80;;;;;;;-3.03;64.84;100784.14;106272;1274;106695;-75